Historyczne dane pomiarowe

Dodano dane terminowe – wersja testowa.

Dane z okresu 1951-2019

Wersja bazy: 1.34 [2019-03-16, lista zmian], aktualizacja planowana na 2019-04-15

Dane meteo z obszaru Polski uzyskane na podstawie danych udostępnionych przez Instytut Meteorologii i Gospodarki Wodnej – Państwowy Instytut Badawczy.

 

Wybierz Datę:    

       

TemperaturaWilgotnośćWiatrCiśnienieOpadyŚniegCzas trwania zjawisk
 Stacja t tx tn tng RH VA  wxwx mslp ppp RRR   cm mm wxwxwxwxwxwxwx
1994-08-14 15.5 19.8 12.0- 66.8- 6.0 3.0---- 0.0------------
1994-08-13 17.2 21.2 15.2- 85.8- 6.3 3.0---- 1.6------------
1994-08-12 18.1 21.2 14.7- 86.5- 7.0 0.7---- 0.2------------
1994-08-11 18.6 25.7 12.9- 88.0- 8.0 2.3---- 12.5------------
1994-08-10 20.5 26.2 16.6- 75.8- 3.7 3.3---- 13.8------------
1994-08-09 20.4 30.1 16.7- 82.0- 7.7 1.3---- 2.2------------
1994-08-08 21.5 30.9 16.6- 76.8- 6.7 2.0---- 15.7------------
1994-08-07 21.2 29.2 12.9- 74.8- 6.0 0.0---- 0.0------------
1994-08-06 21.4 31.2 11.0- 64.3- 2.3 1.3---- 0.0------------
1994-08-05 21.3 29.1 13.7- 67.8- 2.0 0.7---- 0.0------------
1994-08-04 21.1 28.1 15.7- 82.3- 6.0 0.3---- 0.0------------
1994-08-03 23.1 30.7 16.7- 72.3- 5.0 1.7---- 5.1------------
1994-08-02 23.5 32.0 11.9- 58.5- 1.0 1.7---- 0.0------------
1994-08-01 23.5 32.5 14.3- 63.0- 4.7 3.7---- 0.0------------
1994-07-31 23.4 32.4 13.3- 64.0- 2.3 1.0---- 0.0------------
1994-07-30 22.8 31.3 12.4- 61.0- 2.0 0.7---- 0.0------------
1994-07-29 22.4 31.9 11.1- 57.5- 1.3 0.0---- 0.0------------
1994-07-28 22.7 30.7 12.0- 60.0- 0.7 0.7---- 0.0------------
1994-07-27 22.3 31.6 11.8- 57.0- 2.3 0.7---- 0.0------------
1994-07-26 22.5 31.1 10.3- 51.0- 1.3 0.3---- 0.0------------
1994-07-25 21.2 29.6 10.9- 56.5- 1.3 0.3---- 0.0------------
1994-07-24 21.0 28.3 10.9- 64.8- 4.0 0.7---- 0.0------------
1994-07-23 20.3 27.4 9.9- 63.5- 1.7 0.7---- 0.0------------
1994-07-22 19.7 26.7 8.8- 63.0- 1.7 0.7---- 0.0------------
1994-07-21 17.9 24.8 8.0- 67.8- 0.3 0.0---- 0.0------------
1994-07-20 18.2 23.3 10.3- 65.8- 2.7 0.7---- 0.0------------
1994-07-19 19.1 24.3 14.0- 73.0- 5.0 1.0---- 0.0------------
1994-07-18 19.2 24.8 16.7- 84.5- 6.7 0.7---- 0.1------------
1994-07-17 22.4 29.6 14.3- 70.0- 4.0 1.0---- 7.6------------
1994-07-16 21.2 30.0 10.9- 67.8- 3.0 0.3---- 0.0------------
1994-07-15 21.0 26.7 13.2- 70.8- 3.3 1.7---- 0.0------------
1994-07-14 19.9 27.4 11.4- 70.0- 4.0 2.0---- 0.0------------
1994-07-13 19.7 26.4 10.9- 69.0- 3.3 1.3---- 0.0------------
1994-07-12 20.5 25.7 14.8- 65.8- 4.3 2.7---- 0.0------------
1994-07-11 15.6 19.6 11.1- 90.8- 7.3 1.0---- 0.0------------
1994-07-10 14.5 20.6 9.2- 87.5- 8.0 0.7---- 0.9------------
1994-07-09 13.6 20.6 8.0- 87.8- 7.7 1.0---- 1.0------------
1994-07-08 17.4 22.6 15.1- 79.3- 6.7 2.7---- 0.5------------
1994-07-07 17.6 26.7 8.2- 70.3- 5.7 1.7---- 2.1------------
1994-07-06 19.6 24.2 11.4- 66.5- 2.7 0.7---- 0.0------------
1994-07-05 19.6 27.0 9.1- 67.0- 4.7 1.0---- 0.0------------
1994-07-04 19.3 26.6 7.8- 63.3- 1.7 0.7---- 0.0------------
1994-07-03 18.0 28.4 6.9- 63.0- 1.3 0.7---- 0.0------------
1994-07-02 17.5 23.7 8.0- 64.3- 2.0 0.7---- 0.0------------
1994-07-01 20.0 22.8 17.7- 68.3- 4.0 0.7---- 0.0------------
1994-06-30 22.8 30.3 14.3- 73.3- 4.0 0.7---- 0.0------------
1994-06-29 23.0 29.6 13.7- 62.0- 0.7 0.7---- 0.0------------
1994-06-28 23.6 28.7 16.7- 70.0- 1.3 0.7---- 0.0------------
1994-06-27 24.3 30.2 15.7- 61.8- 4.7 1.0---- 0.0------------
1994-06-26 19.2 27.6 6.0- 49.5- 0.3 1.7---- 0.0------------
1994-06-25 14.4 21.3 3.4- 55.8- 0.3 1.7---- 0.0------------
1994-06-24 13.5 19.5 5.0- 46.0- 1.0 2.0---- 0.0------------
1994-06-23 17.7 21.8 15.9- 54.0- 4.0 9.0---- 0.0------------
1994-06-22 17.6 25.7 5.5- 60.8- 3.7 1.7---- 0.0------------
1994-06-21 15.1 19.8 6.5- 61.0- 2.0 1.0---- 0.0------------
1994-06-20 17.4 21.3 12.8- 69.3- 3.0 3.0---- 0.0------------
1994-06-19 16.7 22.3 11.2- 76.8- 5.0 5.3---- 0.0------------
1994-06-18 11.4 17.3 2.5- 78.5- 5.3 3.3---- 4.3------------
1994-06-17 10.2 15.3 7.5- 84.0- 6.0 2.7---- 0.5------------
1994-06-16 13.4 18.5 5.0- 67.8- 4.7 3.0---- 2.5------------
311.5 ms

 

Źródłem pochodzenia danych jest Instytut Meteorologii i Gospodarki Wodnej – Państwowy Instytut Badawczy. Dane Instytutu Meteorologii i Gospodarki Wodnej – Państwowego Instytutu Badawczego zostały przetworzone.

Dane źródłowe można odnaleźć na stronie https://dane.imgw.pl